createdAt,value
2023-04-27T00:02:24.448Z,93167.56
2023-04-27T00:04:53.697Z,93164.41
2023-04-27T00:07:21.897Z,93158.97
2023-04-27T00:09:49.833Z,93152.19
2023-04-27T00:12:18.018Z,93169.41
2023-04-27T00:14:46.256Z,93172.38
2023-04-27T00:17:37.795Z,93174.38
2023-04-27T00:20:08.320Z,93169.66
2023-04-27T00:22:36.778Z,93181.94
2023-04-27T00:25:05.087Z,93170.75
2023-04-27T00:27:33.170Z,93173.97
2023-04-27T00:30:01.123Z,93184.94
2023-04-27T00:32:29.138Z,93183.94
2023-04-27T00:34:57.042Z,93171.97
2023-04-27T00:37:25.151Z,93190.72
2023-04-27T00:39:53.079Z,93184.78
2023-04-27T00:42:21.765Z,93190.31
2023-04-27T00:44:52.427Z,93181.63
2023-04-27T00:47:20.599Z,93196.47
2023-04-27T00:49:48.670Z,93186.53
2023-04-27T00:52:16.743Z,93188.34
2023-04-27T00:54:45.177Z,93201.25
2023-04-27T00:57:13.091Z,93192.44
2023-04-27T00:59:40.983Z,93191.00
2023-04-27T01:02:10.976Z,93191.72
2023-04-27T01:09:19.684Z,93204.44
2023-04-27T01:11:51.145Z,93197.66
2023-04-27T01:14:19.729Z,93206.09
2023-04-27T01:16:48.035Z,93202.94
2023-04-27T01:19:16.287Z,93211.44
2023-04-27T01:21:44.386Z,93198.94
2023-04-27T01:24:12.377Z,93209.28
2023-04-27T01:26:40.250Z,93214.81
2023-04-27T01:29:08.295Z,93211.94
2023-04-27T01:31:36.472Z,93215.31
2023-04-27T01:34:04.774Z,93201.22
2023-04-27T01:36:32.706Z,93223.00
2023-04-27T01:39:01.016Z,93211.75
2023-04-27T01:41:29.001Z,93219.25
2023-04-27T01:43:56.984Z,93221.56
2023-04-27T01:46:24.959Z,93214.47
2023-04-27T01:48:52.989Z,93212.53
2023-04-27T01:51:21.536Z,93209.63
2023-04-27T01:53:52.927Z,93215.19
2023-04-27T01:56:20.872Z,93211.53
2023-04-27T01:58:49.299Z,93199.44
2023-04-27T02:01:17.367Z,93215.59
2023-04-27T02:03:45.859Z,93209.81
2023-04-27T02:06:14.027Z,93219.03
2023-04-27T02:08:42.044Z,93224.19
2023-04-27T02:11:10.003Z,93219.25
2023-04-27T02:13:38.074Z,93215.13
2023-04-27T02:16:06.883Z,93220.31
2023-04-27T02:18:35.353Z,93224.09
2023-04-27T02:21:10.058Z,93233.53
2023-04-27T02:23:38.160Z,93230.19
2023-04-27T02:26:06.466Z,93223.53
2023-04-27T02:28:34.635Z,93230.66
2023-04-27T02:31:03.374Z,93218.47
2023-04-27T02:33:31.704Z,93229.63
2023-04-27T02:35:59.821Z,93228.97
2023-04-27T02:38:30.264Z,93240.13
2023-04-27T02:40:58.269Z,93231.34
2023-04-27T02:43:27.379Z,93230.78
2023-04-27T02:45:58.366Z,93229.53
2023-04-27T02:48:30.712Z,93238.72
2023-04-27T02:50:58.903Z,93238.72
2023-04-27T02:55:14.685Z,93247.59
2023-04-27T02:57:43.213Z,93240.31
2023-04-27T03:00:12.180Z,93245.97
2023-04-27T03:02:40.229Z,93243.31
2023-04-27T03:05:08.834Z,93245.88
2023-04-27T03:07:36.949Z,93237.78
2023-04-27T03:10:05.505Z,93243.09
2023-04-27T03:12:33.429Z,93239.75
2023-04-27T03:15:01.524Z,93238.16
2023-04-27T03:17:30.173Z,93242.28
2023-04-27T03:19:58.117Z,93242.28
2023-04-27T03:22:26.051Z,93248.59
2023-04-27T03:24:54.092Z,93253.66
2023-04-27T03:27:22.111Z,93241.13
2023-04-27T03:29:54.530Z,93255.16
2023-04-27T03:32:22.610Z,93254.44
2023-04-27T03:34:50.565Z,93258.34
2023-04-27T03:37:18.738Z,93259.53
2023-04-27T03:39:46.656Z,93266.56
2023-04-27T03:42:15.008Z,93254.56
2023-04-27T03:44:42.980Z,93278.97
2023-04-27T03:47:10.929Z,93278.75
2023-04-27T03:49:40.389Z,93256.41
2023-04-27T03:52:09.261Z,93274.13
2023-04-27T03:54:37.429Z,93276.31
2023-04-27T03:57:05.465Z,93282.53
2023-04-27T03:59:33.420Z,93280.47
2023-04-27T04:02:01.712Z,93284.28
2023-04-27T04:04:30.057Z,93289.94
2023-04-27T04:06:58.153Z,93287.97
2023-04-27T04:09:26.521Z,93303.50
2023-04-27T04:11:55.818Z,93300.53
2023-04-27T04:14:23.941Z,93302.81
2023-04-27T04:16:52.707Z,93299.59
2023-04-27T04:19:22.204Z,93294.88
2023-04-27T04:21:50.987Z,93299.72
2023-04-27T04:24:20.240Z,93301.13
2023-04-27T04:26:48.821Z,93305.81
2023-04-27T04:29:16.954Z,93298.63
2023-04-27T04:31:45.544Z,93306.13
2023-04-27T04:34:14.785Z,93318.78
2023-04-27T04:36:42.952Z,93310.50
2023-04-27T04:39:12.991Z,93314.03
2023-04-27T04:41:41.395Z,93311.50
2023-04-27T04:44:12.754Z,93314.16
2023-04-27T04:46:40.776Z,93321.91
2023-04-27T04:49:09.333Z,93326.63
2023-04-27T04:51:42.102Z,93332.94
2023-04-27T04:54:10.792Z,93325.44
2023-04-27T04:56:38.982Z,93337.28
2023-04-27T04:59:07.397Z,93338.25
2023-04-27T05:01:35.520Z,93328.22
2023-04-27T05:04:03.792Z,93332.00
2023-04-27T05:06:32.602Z,93339.41
2023-04-27T05:09:00.858Z,93342.34
2023-04-27T05:11:28.832Z,93352.81
2023-04-27T05:13:56.874Z,93348.22
2023-04-27T05:16:26.713Z,93350.38
2023-04-27T05:18:55.068Z,93342.00
2023-04-27T05:21:23.394Z,93361.56
2023-04-27T05:23:51.291Z,93357.63
2023-04-27T05:26:19.477Z,93360.56
2023-04-27T05:28:47.488Z,93360.97
2023-04-27T05:31:15.455Z,93365.13
2023-04-27T05:33:43.460Z,93365.56
2023-04-27T05:36:11.577Z,93352.75
2023-04-27T05:38:40.701Z,93357.81
2023-04-27T05:41:08.512Z,93363.56
2023-04-27T05:43:38.272Z,93353.47
2023-04-27T05:46:06.465Z,93364.31
2023-04-27T05:48:34.777Z,93364.66
2023-04-27T05:51:03.729Z,93365.00
2023-04-27T05:53:32.908Z,93333.66
2023-04-27T05:56:01.429Z,93367.78
2023-04-27T05:58:29.397Z,93367.84
2023-04-27T06:00:57.818Z,93361.19
2023-04-27T06:03:26.331Z,93368.81
2023-04-27T06:05:58.644Z,93370.91
2023-04-27T06:08:28.060Z,93369.09
2023-04-27T06:10:56.057Z,93359.94
2023-04-27T06:13:24.365Z,93370.22
2023-04-27T06:15:52.457Z,93364.28
2023-04-27T06:18:20.658Z,93369.41
2023-04-27T06:20:48.608Z,93366.78
2023-04-27T06:23:16.637Z,93367.44
2023-04-27T06:25:44.676Z,93375.84
2023-04-27T06:28:12.806Z,93367.50
2023-04-27T06:30:40.800Z,93350.56
2023-04-27T06:33:09.529Z,93367.91
2023-04-27T06:35:37.441Z,93375.50
2023-04-27T06:38:07.586Z,93366.88
2023-04-27T06:40:37.343Z,93358.88
2023-04-27T06:43:05.362Z,93362.03
2023-04-27T06:45:33.299Z,93357.34
2023-04-27T06:48:01.306Z,93351.53
2023-04-27T06:50:29.787Z,93356.88
2023-04-27T06:52:57.490Z,93350.56
2023-04-27T06:55:25.831Z,93349.75
2023-04-27T06:57:53.753Z,93343.78
2023-04-27T07:00:21.814Z,93348.56
2023-04-27T07:02:49.852Z,93353.94
2023-04-27T07:05:17.968Z,93359.09
2023-04-27T07:07:46.368Z,93361.44
2023-04-27T07:10:14.479Z,93364.94
2023-04-27T07:12:42.892Z,93368.16
2023-04-27T07:15:11.395Z,93338.94
2023-04-27T07:17:39.494Z,93359.06
2023-04-27T07:20:08.830Z,93348.03
2023-04-27T07:22:36.872Z,93348.41
2023-04-27T07:25:05.764Z,93343.50
2023-04-27T07:27:33.486Z,93307.22
2023-04-27T07:30:01.362Z,93332.06
2023-04-27T07:32:29.709Z,93326.75
2023-04-27T07:34:58.388Z,93322.16
2023-04-27T07:37:26.991Z,93324.22
2023-04-27T07:39:55.077Z,93330.69
2023-04-27T07:42:23.706Z,93326.44
2023-04-27T07:44:52.686Z,93333.69
2023-04-27T07:47:21.041Z,93343.53
2023-04-27T07:49:49.237Z,93332.66
2023-04-27T07:52:17.154Z,93335.22
2023-04-27T07:54:44.982Z,93335.38
2023-04-27T07:57:12.952Z,93336.94
2023-04-27T07:59:40.927Z,93347.16
2023-04-27T08:02:19.229Z,93337.59
2023-04-27T08:04:50.162Z,93341.00
2023-04-27T08:07:19.416Z,93331.56
2023-04-27T08:09:51.053Z,93342.72
2023-04-27T08:12:19.718Z,93338.06
2023-04-27T08:14:47.474Z,93341.41
2023-04-27T08:17:15.514Z,93336.50
2023-04-27T08:19:43.434Z,93344.94
2023-04-27T08:22:11.430Z,93348.28
2023-04-27T08:24:39.444Z,93335.41
2023-04-27T08:27:07.682Z,93344.63
2023-04-27T08:29:36.035Z,93333.22
2023-04-27T08:32:05.244Z,93334.13
2023-04-27T08:34:33.349Z,93345.13
2023-04-27T08:37:02.531Z,93353.72
2023-04-27T08:39:30.841Z,93346.53
2023-04-27T08:41:58.874Z,93343.09
2023-04-27T08:44:27.208Z,93343.00
2023-04-27T08:46:55.158Z,93355.34
2023-04-27T08:49:23.274Z,93350.50
2023-04-27T08:51:51.114Z,93347.63
2023-04-27T08:54:35.977Z,93339.50
2023-04-27T08:57:10.040Z,93343.97
2023-04-27T08:59:38.715Z,93360.38
2023-04-27T09:02:07.967Z,93348.47
2023-04-27T09:04:49.437Z,93352.13
2023-04-27T09:07:18.622Z,93354.78
2023-04-27T09:09:48.640Z,93357.50
2023-04-27T09:12:22.284Z,93361.56
2023-04-27T09:14:57.736Z,93366.56
2023-04-27T09:17:28.170Z,93360.28
2023-04-27T09:20:13.868Z,93353.63
2023-04-27T09:22:55.876Z,93360.53
2023-04-27T09:25:32.607Z,93361.66
2023-04-27T09:28:01.520Z,93352.69
2023-04-27T09:30:30.749Z,93355.63
2023-04-27T09:33:04.321Z,93360.63
2023-04-27T09:35:33.706Z,93333.84
2023-04-27T09:38:01.853Z,93347.34
2023-04-27T09:40:31.514Z,93349.16
2023-04-27T09:43:01.981Z,93345.84
2023-04-27T09:45:30.118Z,93348.09
2023-04-27T09:47:58.857Z,93349.69
2023-04-27T09:50:27.124Z,93348.94
2023-04-27T09:52:54.972Z,93343.03
2023-04-27T09:55:31.394Z,93342.41
2023-04-27T09:58:16.417Z,93338.19
2023-04-27T10:01:09.263Z,93332.69
2023-04-27T10:04:16.111Z,93336.03
2023-04-27T10:06:44.083Z,93337.00
2023-04-27T10:09:13.526Z,93326.53
2023-04-27T10:11:44.828Z,93330.78
2023-04-27T10:14:18.496Z,93331.63
2023-04-27T10:16:56.219Z,93332.78
2023-04-27T10:19:25.443Z,93323.84
2023-04-27T10:22:08.616Z,93329.22
2023-04-27T10:24:42.992Z,93336.09
2023-04-27T10:27:13.750Z,93328.13
2023-04-27T10:29:43.722Z,93324.56
2023-04-27T10:32:21.679Z,93326.97
2023-04-27T10:34:51.456Z,93324.06
2023-04-27T10:37:25.760Z,93283.53
2023-04-27T10:40:07.600Z,93313.19
2023-04-27T10:42:35.606Z,93312.91
2023-04-27T10:45:03.756Z,93319.94
2023-04-27T10:47:43.855Z,93314.88
2023-04-27T10:50:16.101Z,93315.16
2023-04-27T10:52:46.457Z,93314.47
2023-04-27T10:55:19.176Z,93317.81
2023-04-27T10:57:55.700Z,93318.03
2023-04-27T11:00:34.355Z,93321.69
2023-04-27T11:03:31.996Z,93321.59
2023-04-27T11:06:04.482Z,93309.78
2023-04-27T11:08:36.950Z,93319.25
2023-04-27T11:11:06.367Z,93319.22
2023-04-27T11:13:34.427Z,93300.66
2023-04-27T11:16:05.105Z,93300.00
2023-04-27T11:18:36.151Z,93313.53
2023-04-27T11:21:08.783Z,93313.63
2023-04-27T11:23:38.401Z,93305.75
2023-04-27T11:26:19.062Z,93317.09
2023-04-27T11:29:12.867Z,93315.50
2023-04-27T11:31:51.799Z,93321.38
2023-04-27T11:34:25.976Z,93319.84
2023-04-27T11:39:35.508Z,93324.25
2023-04-27T11:42:21.086Z,93319.81
2023-04-27T11:45:00.251Z,93318.63
2023-04-27T11:47:33.861Z,93324.63
2023-04-27T11:50:05.266Z,93322.34
2023-04-27T11:52:35.806Z,93326.78
2023-04-27T11:55:05.406Z,93322.50
2023-04-27T11:57:36.297Z,93325.19
2023-04-27T12:00:16.813Z,93328.81
2023-04-27T12:02:45.392Z,93327.41
2023-04-27T12:05:14.067Z,93329.34
2023-04-27T12:07:43.701Z,93333.31
2023-04-27T12:10:12.168Z,93327.78
2023-04-27T12:12:40.922Z,93329.38
2023-04-27T12:15:09.468Z,93331.44
2023-04-27T12:17:39.324Z,93337.31
2023-04-27T12:20:07.963Z,93329.69
2023-04-27T12:22:35.982Z,93331.06
2023-04-27T12:25:04.415Z,93321.56
2023-04-27T12:27:32.516Z,93327.00
2023-04-27T12:30:01.510Z,93329.13
2023-04-27T12:32:29.976Z,93324.69
2023-04-27T12:34:58.092Z,93329.53
2023-04-27T12:37:27.151Z,93327.63
2023-04-27T12:39:55.520Z,93329.88
2023-04-27T12:42:24.553Z,93328.34
2023-04-27T12:44:53.665Z,93333.13
2023-04-27T12:47:43.150Z,93330.50
2023-04-27T12:50:10.906Z,93330.66
2023-04-27T12:52:39.028Z,93328.41
2023-04-27T12:55:15.225Z,93331.34
2023-04-27T12:57:50.103Z,93322.34
2023-04-27T13:00:18.579Z,93325.69
2023-04-27T13:02:46.554Z,93335.78
2023-04-27T13:05:14.966Z,93329.09
2023-04-27T13:07:43.085Z,93332.31
2023-04-27T13:10:12.381Z,93339.72
2023-04-27T13:12:40.789Z,93333.94
2023-04-27T13:15:09.850Z,93332.50
2023-04-27T13:17:38.288Z,93328.94
2023-04-27T13:20:09.542Z,93331.00
2023-04-27T13:22:38.096Z,93323.50
2023-04-27T13:25:07.527Z,93322.97
2023-04-27T13:27:35.894Z,93330.22
2023-04-27T13:30:05.409Z,93320.78
2023-04-27T13:32:34.102Z,93329.91
2023-04-27T13:35:02.047Z,93323.13
2023-04-27T13:37:30.139Z,93329.13
2023-04-27T13:39:57.935Z,93332.06
2023-04-27T13:42:29.714Z,93329.81
2023-04-27T13:44:57.825Z,93323.31
2023-04-27T13:47:25.802Z,93334.03
2023-04-27T13:49:53.813Z,93325.66
2023-04-27T13:52:21.875Z,93333.63
2023-04-27T13:54:49.859Z,93340.13
2023-04-27T13:57:18.183Z,93337.31
2023-04-27T13:59:46.272Z,93338.06
2023-04-27T14:02:14.408Z,93336.84
2023-04-27T14:04:42.471Z,93326.09
2023-04-27T14:07:10.657Z,93331.16
2023-04-27T14:09:38.518Z,93331.50
2023-04-27T14:12:06.680Z,93340.97
2023-04-27T14:14:36.432Z,93334.50
2023-04-27T14:17:05.073Z,93344.72
2023-04-27T14:19:33.584Z,93341.25
2023-04-27T14:22:02.192Z,93345.41
2023-04-27T14:24:30.406Z,93348.75
2023-04-27T14:26:58.561Z,93350.19
2023-04-27T14:29:26.933Z,93353.88
2023-04-27T14:31:56.248Z,93360.38
2023-04-27T14:34:24.526Z,93358.22
2023-04-27T14:36:52.444Z,93361.03
2023-04-27T14:39:20.780Z,93357.59
2023-04-27T14:41:49.210Z,93369.50
2023-04-27T14:44:17.465Z,93371.84
2023-04-27T14:46:45.933Z,93367.31
2023-04-27T14:49:15.215Z,93377.22
2023-04-27T14:51:43.881Z,93382.56
2023-04-27T14:54:12.586Z,93386.59
2023-04-27T14:56:41.567Z,93377.53
2023-04-27T14:59:09.918Z,93383.13
2023-04-27T15:01:38.675Z,93387.16
2023-04-27T15:04:12.637Z,93386.63
2023-04-27T15:06:41.555Z,93390.91
2023-04-27T15:09:12.529Z,93394.63
2023-04-27T15:11:41.703Z,93383.41
2023-04-27T15:14:11.807Z,93385.81
2023-04-27T15:16:40.498Z,93370.31
2023-04-27T15:19:08.808Z,93383.41
2023-04-27T15:21:36.853Z,93383.97
2023-04-27T15:24:05.377Z,93389.31
2023-04-27T15:26:33.889Z,93394.13
2023-04-27T15:29:02.176Z,93401.63
2023-04-27T15:31:30.558Z,93392.78
2023-04-27T15:33:58.837Z,93400.00
2023-04-27T15:36:28.593Z,93383.69
2023-04-27T15:38:58.138Z,93398.66
2023-04-27T15:41:26.622Z,93405.63
2023-04-27T15:43:55.193Z,93413.88
2023-04-27T15:46:23.622Z,93412.28
2023-04-27T15:48:52.080Z,93415.50
2023-04-27T15:51:20.330Z,93417.13
2023-04-27T15:53:48.650Z,93425.38
2023-04-27T15:56:17.143Z,93409.88
2023-04-27T15:58:46.554Z,93420.00
2023-04-27T16:01:15.246Z,93422.88
2023-04-27T16:03:43.885Z,93434.31
2023-04-27T16:06:12.430Z,93441.50
2023-04-27T16:08:40.881Z,93439.06
2023-04-27T16:11:09.429Z,93447.25
2023-04-27T16:13:37.833Z,93444.78
2023-04-27T16:16:08.896Z,93449.50
2023-04-27T16:18:39.043Z,93458.00
2023-04-27T16:21:07.448Z,93451.22
2023-04-27T16:23:36.053Z,93467.56
2023-04-27T16:26:04.404Z,93453.13
2023-04-27T16:28:33.535Z,93468.09
2023-04-27T16:31:01.956Z,93454.38
2023-04-27T16:33:30.764Z,93471.38
2023-04-27T16:35:59.250Z,93466.81
2023-04-27T16:38:28.225Z,93470.84
2023-04-27T16:40:57.396Z,93478.50
2023-04-27T16:43:26.007Z,93477.81
2023-04-27T16:45:56.188Z,93482.81
2023-04-27T16:48:24.735Z,93474.75
2023-04-27T16:50:54.736Z,93485.00
2023-04-27T16:53:24.225Z,93490.34
2023-04-27T16:55:52.318Z,93496.63
2023-04-27T16:58:21.042Z,93501.13
2023-04-27T17:00:49.626Z,93501.84
2023-04-27T17:03:18.110Z,93502.66
2023-04-27T17:05:46.602Z,93502.59
2023-04-27T17:08:15.166Z,93511.75
2023-04-27T17:10:45.649Z,93513.47
2023-04-27T17:13:16.913Z,93506.91
2023-04-27T17:15:45.272Z,93517.69
2023-04-27T17:18:13.658Z,93521.44
2023-04-27T17:20:42.405Z,93518.22
2023-04-27T17:23:11.128Z,93514.00
2023-04-27T17:25:40.135Z,93509.97
2023-04-27T17:28:08.838Z,93533.78
2023-04-27T17:30:37.910Z,93532.19
2023-04-27T17:33:06.590Z,93538.16
2023-04-27T17:35:35.144Z,93535.13
2023-04-27T17:38:03.912Z,93532.56
2023-04-27T17:40:33.199Z,93545.53
2023-04-27T17:43:01.720Z,93546.72
2023-04-27T17:45:32.183Z,93549.56
2023-04-27T17:48:00.937Z,93557.63
2023-04-27T17:50:31.208Z,93570.22
2023-04-27T17:52:59.695Z,93570.03
2023-04-27T17:55:28.029Z,93560.13
2023-04-27T17:57:56.715Z,93577.94
2023-04-27T18:00:25.127Z,93585.38
2023-04-27T18:02:53.793Z,93588.59
2023-04-27T18:05:22.409Z,93588.03
2023-04-27T18:07:51.006Z,93596.25
2023-04-27T18:10:19.374Z,93599.38
2023-04-27T18:12:47.840Z,93605.41
2023-04-27T18:15:16.244Z,93601.03
2023-04-27T18:17:45.591Z,93601.47
2023-04-27T18:20:16.100Z,93607.09
2023-04-27T18:22:44.685Z,93608.06
2023-04-27T18:25:13.681Z,93615.00
2023-04-27T18:27:44.424Z,93619.84
2023-04-27T18:30:13.313Z,93624.09
2023-04-27T18:32:41.709Z,93616.38
2023-04-27T18:35:10.577Z,93626.22
2023-04-27T18:37:38.952Z,93631.78
2023-04-27T18:40:08.859Z,93642.41
2023-04-27T18:42:37.489Z,93637.81
2023-04-27T18:45:06.565Z,93641.56
2023-04-27T18:47:35.396Z,93635.38
2023-04-27T18:53:57.703Z,93643.56
2023-04-27T18:56:26.488Z,93644.75
2023-04-27T18:58:54.843Z,93648.69
2023-04-27T19:01:27.978Z,93649.50
2023-04-27T19:03:59.630Z,93653.34
2023-04-27T19:06:28.335Z,93652.16
2023-04-27T19:08:56.897Z,93661.50
2023-04-27T19:11:25.999Z,93664.75
2023-04-27T19:13:54.314Z,93659.28
2023-04-27T19:16:24.425Z,93663.13
2023-04-27T19:18:52.964Z,93650.94
2023-04-27T19:21:21.734Z,93671.22
2023-04-27T19:23:50.057Z,93675.59
2023-04-27T19:26:18.447Z,93670.66
2023-04-27T19:28:47.279Z,93679.78
2023-04-27T19:31:15.875Z,93678.03
2023-04-27T19:33:47.267Z,93679.78
2023-04-27T19:36:23.523Z,93687.06
2023-04-27T19:38:52.244Z,93686.09
2023-04-27T19:41:21.246Z,93690.94
2023-04-27T19:43:50.075Z,93680.13
2023-04-27T19:46:18.580Z,93687.06
2023-04-27T19:48:47.140Z,93679.66
2023-04-27T19:51:15.549Z,93691.56
2023-04-27T19:53:43.864Z,93691.19
2023-04-27T19:56:12.580Z,93694.31
2023-04-27T19:58:41.199Z,93703.69
2023-04-27T20:01:10.378Z,93699.28
2023-04-27T20:03:40.621Z,93691.59
2023-04-27T20:06:10.593Z,93696.47
2023-04-27T20:08:39.131Z,93690.41
2023-04-27T20:11:07.586Z,93702.19
2023-04-27T20:13:36.204Z,93694.22
2023-04-27T20:16:05.502Z,93700.59
2023-04-27T20:18:34.129Z,93689.84
2023-04-27T20:21:03.733Z,93701.44
2023-04-27T20:23:32.499Z,93703.84
2023-04-27T20:26:00.548Z,93703.84
2023-04-27T20:28:30.330Z,93704.31
2023-04-27T20:30:59.253Z,93700.25
2023-04-27T20:33:27.120Z,93695.50
2023-04-27T20:36:03.521Z,93698.63
2023-04-27T20:38:35.233Z,93694.63
2023-04-27T20:41:04.983Z,93697.28
2023-04-27T20:43:32.898Z,93701.22
2023-04-27T20:46:01.424Z,93691.38
2023-04-27T20:48:29.820Z,93699.28
2023-04-27T20:50:57.786Z,93695.31
2023-04-27T20:53:26.630Z,93702.84
2023-04-27T20:55:55.806Z,93710.47
2023-04-27T20:58:24.197Z,93702.81
2023-04-27T21:00:55.240Z,93700.16
2023-04-27T21:03:23.419Z,93698.78
2023-04-27T21:05:54.070Z,93693.34
2023-04-27T21:08:22.156Z,93699.13
2023-04-27T21:10:50.333Z,93709.31
2023-04-27T21:13:18.402Z,93699.81
2023-04-27T21:15:46.543Z,93705.13
2023-04-27T21:18:29.135Z,93688.50
2023-04-27T21:20:58.852Z,93708.56
2023-04-27T21:23:26.871Z,93706.41
2023-04-27T21:25:54.971Z,93702.94
2023-04-27T21:28:22.906Z,93699.59
2023-04-27T21:30:54.491Z,93705.03
2023-04-27T21:33:22.763Z,93707.69
2023-04-27T21:35:50.709Z,93713.69
2023-04-27T21:38:18.741Z,93704.09
2023-04-27T21:40:46.603Z,93706.75
2023-04-27T21:43:14.479Z,93710.38
2023-04-27T21:45:42.923Z,93707.94
2023-04-27T21:48:11.233Z,93702.50
2023-04-27T21:50:39.008Z,93707.16
2023-04-27T21:53:07.049Z,93710.59
2023-04-27T21:55:35.050Z,93705.19
2023-04-27T21:58:02.953Z,93697.91
2023-04-27T22:00:31.018Z,93708.38
2023-04-27T22:02:58.963Z,93705.97
2023-04-27T22:05:29.452Z,93708.03
2023-04-27T22:07:58.133Z,93710.94
2023-04-27T22:10:26.225Z,93713.25
2023-04-27T22:12:54.870Z,93704.56
2023-04-27T22:15:23.709Z,93713.56
2023-04-27T22:17:51.686Z,93710.94
2023-04-27T22:20:19.847Z,93711.84
2023-04-27T22:22:47.680Z,93713.00
2023-04-27T22:25:16.148Z,93708.81
2023-04-27T22:27:45.319Z,93706.28
2023-04-27T22:30:14.594Z,93711.38
2023-04-27T22:32:43.799Z,93703.78
2023-04-27T22:35:24.777Z,93704.91
2023-04-27T22:37:59.345Z,93704.75
2023-04-27T22:40:27.420Z,93707.19
2023-04-27T22:42:56.232Z,93711.88
2023-04-27T22:45:24.137Z,93708.19
2023-04-27T22:47:52.124Z,93696.75
2023-04-27T22:50:20.215Z,93707.94
2023-04-27T22:52:48.490Z,93710.38
2023-04-27T22:55:16.409Z,93712.88
2023-04-27T22:57:44.874Z,93708.94
2023-04-27T23:00:13.183Z,93703.41
2023-04-27T23:02:41.777Z,93705.81
2023-04-27T23:05:13.560Z,93711.94
2023-04-27T23:07:43.065Z,93700.25
2023-04-27T23:10:11.277Z,93704.16
2023-04-27T23:12:39.282Z,93700.13
2023-04-27T23:15:07.694Z,93700.56
2023-04-27T23:17:36.102Z,93697.25
2023-04-27T23:20:24.089Z,93698.19
2023-04-27T23:22:55.119Z,93694.72
2023-04-27T23:25:23.200Z,93691.81
2023-04-27T23:27:52.497Z,93673.28
2023-04-27T23:30:22.226Z,93689.03
2023-04-27T23:32:50.660Z,93686.38
2023-04-27T23:40:44.590Z,93692.03
2023-04-27T23:43:12.427Z,93692.81
2023-04-27T23:45:40.275Z,93695.34
2023-04-27T23:48:08.217Z,93693.34
2023-04-27T23:50:36.182Z,93693.34
2023-04-27T23:53:04.243Z,93695.47
2023-04-27T23:55:34.937Z,93692.69
2023-04-27T23:58:03.675Z,93696.00
